createdAt,value
2019-02-05T00:00:40.125Z,20.23
2019-02-05T00:05:43.257Z,20.23
2019-02-05T00:08:11.417Z,20.24
2019-02-05T00:10:39.548Z,20.18
2019-02-05T00:13:07.737Z,20.21
2019-02-05T00:15:35.935Z,20.19
2019-02-05T00:18:04.101Z,20.15
2019-02-05T00:20:32.224Z,20.23
2019-02-05T00:23:00.384Z,20.24
2019-02-05T00:25:28.575Z,20.19
2019-02-05T00:27:56.740Z,20.18
2019-02-05T00:30:45.420Z,20.21
2019-02-05T00:33:13.571Z,20.21
2019-02-05T00:35:41.712Z,20.20
2019-02-05T00:38:09.860Z,20.18
2019-02-05T00:40:38.011Z,20.21
2019-02-05T00:43:07.836Z,20.19
2019-02-05T00:45:35.979Z,20.21
2019-02-05T00:50:37.641Z,20.14
2019-02-05T00:53:24.859Z,20.09
2019-02-05T00:55:53.018Z,20.15
2019-02-05T00:58:21.225Z,20.16
2019-02-05T01:00:49.394Z,20.15
2019-02-05T01:03:17.615Z,20.14
2019-02-05T01:05:45.813Z,20.16
2019-02-05T01:08:33.111Z,20.10
2019-02-05T01:11:01.235Z,20.09
2019-02-05T01:13:29.489Z,20.12
2019-02-05T01:15:57.629Z,20.08
2019-02-05T01:18:25.855Z,20.14
2019-02-05T01:20:54.548Z,20.14
2019-02-05T01:23:22.739Z,20.16
2019-02-05T01:25:50.955Z,20.09
2019-02-05T01:28:19.142Z,20.14
2019-02-05T01:30:47.308Z,20.10
2019-02-05T01:33:16.971Z,20.13
2019-02-05T01:35:45.120Z,20.10
2019-02-05T01:38:13.296Z,20.07
2019-02-05T01:40:41.491Z,20.05
2019-02-05T01:43:09.660Z,20.10
2019-02-05T01:45:37.860Z,20.12
2019-02-05T01:48:06.082Z,20.07
2019-02-05T01:50:34.237Z,20.09
2019-02-05T01:53:02.749Z,20.09
2019-02-05T01:55:30.914Z,20.10
2019-02-05T01:57:59.087Z,20.08
2019-02-05T02:00:34.339Z,20.07
2019-02-05T02:03:02.511Z,20.02
2019-02-05T02:05:30.701Z,20.03
2019-02-05T02:07:59.310Z,19.98
2019-02-05T02:10:28.328Z,20.05
2019-02-05T02:12:56.552Z,20.03
2019-02-05T02:15:24.784Z,20.06
2019-02-05T02:17:52.927Z,20.10
2019-02-05T02:20:21.219Z,20.04
2019-02-05T02:22:49.398Z,20.03
2019-02-05T02:25:17.594Z,20.11
2019-02-05T02:27:45.781Z,20.13
2019-02-05T02:30:15.604Z,20.11
2019-02-05T02:32:43.803Z,20.08
2019-02-05T02:35:12.180Z,20.06
2019-02-05T02:37:40.378Z,20.00
2019-02-05T02:40:09.063Z,20.02
2019-02-05T02:42:37.297Z,19.99
2019-02-05T02:45:06.091Z,19.98
2019-02-05T02:47:34.244Z,20.00
2019-02-05T02:50:02.422Z,20.00
2019-02-05T02:52:30.675Z,19.99
2019-02-05T02:54:58.972Z,19.99
2019-02-05T02:57:27.118Z,20.03
2019-02-05T02:59:55.358Z,20.02
2019-02-05T03:02:23.512Z,19.95
2019-02-05T03:04:51.693Z,20.05
2019-02-05T03:07:19.836Z,20.05
2019-02-05T03:09:48.110Z,19.98
2019-02-05T03:12:16.252Z,19.96
2019-02-05T03:14:44.723Z,19.99
2019-02-05T03:17:12.865Z,20.00
2019-02-05T03:19:41.073Z,19.92
2019-02-05T03:22:09.339Z,19.97
2019-02-05T03:24:37.500Z,19.95
2019-02-05T03:27:16.979Z,19.93
2019-02-05T03:29:35.519Z,19.99
2019-02-05T03:32:03.734Z,19.92
2019-02-05T03:34:32.108Z,19.98
2019-02-05T03:37:00.263Z,19.96
2019-02-05T03:39:28.423Z,19.89
2019-02-05T03:41:56.580Z,19.96
2019-02-05T03:44:24.767Z,19.92
2019-02-05T03:46:52.923Z,19.89
2019-02-05T03:49:21.071Z,19.91
2019-02-05T03:52:10.353Z,19.95
2019-02-05T03:54:56.280Z,19.91
2019-02-05T03:57:43.543Z,19.90
2019-02-05T04:00:28.308Z,19.90
2019-02-05T04:03:14.558Z,19.91
2019-02-05T04:05:55.965Z,19.94
2019-02-05T04:08:46.296Z,19.94
2019-02-05T04:11:33.695Z,19.87
2019-02-05T04:14:27.428Z,19.90
2019-02-05T04:17:30.142Z,19.91
2019-02-05T04:20:07.350Z,19.89
2019-02-05T04:22:52.200Z,19.91
2019-02-05T04:25:42.523Z,19.95
2019-02-05T04:28:15.809Z,19.99
2019-02-05T04:30:57.579Z,19.86
2019-02-05T04:33:47.844Z,19.85
2019-02-05T04:36:38.439Z,19.85
2019-02-05T04:39:14.629Z,19.89
2019-02-05T04:41:46.472Z,19.88
2019-02-05T04:44:33.741Z,19.90
2019-02-05T04:47:23.031Z,19.86
2019-02-05T04:49:57.657Z,19.89
2019-02-05T04:52:43.990Z,19.89
2019-02-05T04:55:46.741Z,19.85
2019-02-05T04:58:49.162Z,19.85
2019-02-05T05:01:39.687Z,19.79
2019-02-05T05:04:17.014Z,19.88
2019-02-05T05:06:53.503Z,19.91
2019-02-05T05:09:40.037Z,19.88
2019-02-05T05:12:08.238Z,19.87
2019-02-05T05:14:36.419Z,19.86
2019-02-05T05:17:04.596Z,19.86
2019-02-05T05:19:32.766Z,19.84
2019-02-05T05:22:00.949Z,19.82
2019-02-05T05:24:29.202Z,19.88
2019-02-05T05:26:57.330Z,19.86
2019-02-05T05:29:25.538Z,19.84
2019-02-05T05:31:53.761Z,19.86
2019-02-05T05:34:22.180Z,19.87
2019-02-05T05:36:50.408Z,19.83
2019-02-05T05:39:18.944Z,19.36
2019-02-05T05:41:47.117Z,19.80
2019-02-05T05:44:15.271Z,19.77
2019-02-05T05:46:43.449Z,19.84
2019-02-05T05:49:11.631Z,19.86
2019-02-05T05:51:40.179Z,19.81
2019-02-05T05:54:08.376Z,19.84
2019-02-05T05:56:36.630Z,19.89
2019-02-05T05:59:05.495Z,19.84
2019-02-05T06:01:33.696Z,19.84
2019-02-05T06:04:01.872Z,19.85
2019-02-05T06:06:30.068Z,19.84
2019-02-05T06:08:58.743Z,19.78
2019-02-05T06:11:26.965Z,19.78
2019-02-05T06:13:55.186Z,19.73
2019-02-05T06:16:23.385Z,19.79
2019-02-05T06:18:51.548Z,19.83
2019-02-05T06:21:19.692Z,19.81
2019-02-05T06:23:47.934Z,19.75
2019-02-05T06:26:16.134Z,19.76
2019-02-05T06:28:44.319Z,19.77
2019-02-05T06:31:12.467Z,19.73
2019-02-05T06:33:40.629Z,19.81
2019-02-05T06:36:08.870Z,19.77
2019-02-05T06:38:37.043Z,19.78
2019-02-05T06:41:05.212Z,19.72
2019-02-05T06:43:33.426Z,19.77
2019-02-05T06:46:01.640Z,19.79
2019-02-05T06:48:29.849Z,19.80
2019-02-05T06:51:00.882Z,19.78
2019-02-05T06:53:29.016Z,19.76
2019-02-05T06:55:58.357Z,19.76
2019-02-05T06:58:26.600Z,19.75
2019-02-05T07:00:55.081Z,19.74
2019-02-05T07:03:23.213Z,19.76
2019-02-05T07:05:51.422Z,19.75
2019-02-05T07:08:19.568Z,19.74
2019-02-05T07:10:47.876Z,19.75
2019-02-05T07:13:16.148Z,19.68
2019-02-05T07:15:44.276Z,19.71
2019-02-05T07:18:12.451Z,19.76
2019-02-05T07:20:40.632Z,19.69
2019-02-05T07:23:08.822Z,19.73
2019-02-05T07:25:37.101Z,19.71
2019-02-05T07:28:05.279Z,19.72
2019-02-05T07:30:33.493Z,19.76
2019-02-05T07:33:01.701Z,19.73
2019-02-05T07:35:29.880Z,19.75
2019-02-05T07:37:58.337Z,19.77
2019-02-05T07:40:26.485Z,19.76
2019-02-05T07:42:54.725Z,19.71
2019-02-05T07:45:23.096Z,19.73
2019-02-05T07:47:51.256Z,19.69
2019-02-05T07:50:20.451Z,19.78
2019-02-05T07:52:48.764Z,19.73
2019-02-05T07:55:16.890Z,19.73
2019-02-05T07:57:45.936Z,19.71
2019-02-05T08:00:15.532Z,19.74
2019-02-05T08:02:43.688Z,19.72
2019-02-05T08:05:13.483Z,19.72
2019-02-05T08:07:41.616Z,19.73
2019-02-05T08:10:10.555Z,19.73
2019-02-05T08:12:38.688Z,19.71
2019-02-05T08:15:07.834Z,19.74
2019-02-05T08:17:36.168Z,19.71
2019-02-05T08:20:04.713Z,19.68
2019-02-05T08:22:32.845Z,19.74
2019-02-05T08:25:00.981Z,19.69
2019-02-05T08:27:29.149Z,19.69
2019-02-05T08:29:57.291Z,19.69
2019-02-05T08:32:25.454Z,19.70
2019-02-05T08:34:54.117Z,19.70
2019-02-05T08:37:22.249Z,19.72
2019-02-05T08:39:50.393Z,19.65
2019-02-05T08:42:18.528Z,19.66
2019-02-05T08:44:46.715Z,19.70
2019-02-05T08:47:14.870Z,19.68
2019-02-05T08:49:43.006Z,19.69
2019-02-05T08:52:11.264Z,19.63
2019-02-05T08:54:39.687Z,19.67
2019-02-05T08:57:07.852Z,19.71
2019-02-05T08:59:36.010Z,19.69
2019-02-05T09:02:04.158Z,19.63
2019-02-05T09:04:32.279Z,19.65
2019-02-05T09:07:00.456Z,19.69
2019-02-05T09:09:28.633Z,19.64
2019-02-05T09:11:56.841Z,19.66
2019-02-05T09:14:25.125Z,19.67
2019-02-05T09:16:53.252Z,19.69
2019-02-05T09:19:21.411Z,19.65
2019-02-05T09:21:49.561Z,19.72
2019-02-05T09:24:17.720Z,19.63
2019-02-05T09:26:45.887Z,19.65
2019-02-05T09:29:14.060Z,19.65
2019-02-05T09:31:42.517Z,19.67
2019-02-05T09:34:10.707Z,19.68
2019-02-05T09:36:38.872Z,19.69
2019-02-05T09:39:07.398Z,19.69
2019-02-05T09:41:35.610Z,19.72
2019-02-05T09:44:03.749Z,19.66
2019-02-05T09:46:31.886Z,19.66
2019-02-05T09:49:00.032Z,19.65
2019-02-05T09:51:28.264Z,19.67
2019-02-05T09:53:56.422Z,19.69
2019-02-05T09:56:24.554Z,19.65
2019-02-05T09:58:52.768Z,19.64
2019-02-05T10:01:20.895Z,19.63
2019-02-05T10:03:49.060Z,19.62
2019-02-05T10:06:17.303Z,19.71
2019-02-05T10:08:45.656Z,19.69
2019-02-05T10:11:13.835Z,19.65
2019-02-05T10:13:42.425Z,19.71
2019-02-05T10:16:10.601Z,19.73
2019-02-05T10:18:38.782Z,19.72
2019-02-05T10:21:06.992Z,19.68
2019-02-05T10:23:35.172Z,19.68
2019-02-05T10:26:03.584Z,19.69
2019-02-05T10:28:31.744Z,19.64
2019-02-05T10:30:59.913Z,19.69
2019-02-05T10:33:28.093Z,19.65
2019-02-05T10:35:56.255Z,19.68
2019-02-05T10:38:24.417Z,19.70
2019-02-05T10:40:52.578Z,19.70
2019-02-05T10:43:20.725Z,19.69
2019-02-05T10:45:48.952Z,19.70
2019-02-05T10:48:17.136Z,19.69
2019-02-05T10:50:45.373Z,19.66
2019-02-05T10:53:13.488Z,19.62
2019-02-05T10:55:41.661Z,19.69
2019-02-05T10:58:09.832Z,19.70
2019-02-05T11:00:38.100Z,19.69
2019-02-05T11:03:06.683Z,19.69
2019-02-05T11:05:34.899Z,19.72
2019-02-05T11:08:03.250Z,19.68
2019-02-05T11:10:31.477Z,19.68
2019-02-05T11:12:59.631Z,19.70
2019-02-05T11:15:28.797Z,19.68
2019-02-05T11:17:56.976Z,19.65
2019-02-05T11:20:26.024Z,19.63
2019-02-05T11:22:54.179Z,19.65
2019-02-05T11:25:22.662Z,19.65
2019-02-05T11:27:50.902Z,19.68
2019-02-05T11:30:23.069Z,19.67
2019-02-05T11:32:53.007Z,19.73
2019-02-05T11:35:21.156Z,19.72
2019-02-05T11:37:49.724Z,19.72
2019-02-05T11:40:19.441Z,19.69
2019-02-05T11:42:47.698Z,19.71
2019-02-05T11:45:15.973Z,19.67
2019-02-05T11:47:44.214Z,19.69
2019-02-05T11:50:12.773Z,19.71
2019-02-05T11:52:41.002Z,19.69
2019-02-05T11:55:10.400Z,19.74
2019-02-05T11:57:38.574Z,19.73
2019-02-05T12:00:07.513Z,19.72
2019-02-05T12:02:35.697Z,19.66
2019-02-05T12:05:03.912Z,19.69
2019-02-05T12:07:32.095Z,19.70
2019-02-05T12:10:00.378Z,19.72
2019-02-05T12:12:28.589Z,19.73
2019-02-05T12:14:57.065Z,19.73
2019-02-05T12:17:25.222Z,19.73
2019-02-05T12:19:55.629Z,19.74
2019-02-05T12:22:23.597Z,19.76
2019-02-05T12:24:51.784Z,19.72
2019-02-05T12:27:20.467Z,19.70
2019-02-05T12:29:48.664Z,19.74
2019-02-05T12:32:17.306Z,19.77
2019-02-05T12:34:45.513Z,19.75
2019-02-05T12:37:14.535Z,19.68
2019-02-05T12:39:42.822Z,19.77
2019-02-05T12:42:11.011Z,19.74
2019-02-05T12:44:39.233Z,19.76
2019-02-05T12:47:07.487Z,19.71
2019-02-05T12:49:36.056Z,19.74
2019-02-05T12:52:04.240Z,19.74
2019-02-05T12:54:32.595Z,19.71
2019-02-05T12:57:00.865Z,19.73
2019-02-05T12:59:29.064Z,19.70
2019-02-05T13:01:57.345Z,19.67
2019-02-05T13:04:25.602Z,19.69
2019-02-05T13:06:54.257Z,19.68
2019-02-05T13:09:22.424Z,19.67
2019-02-05T13:11:50.626Z,19.69
2019-02-05T13:14:18.785Z,19.73
2019-02-05T13:16:46.981Z,19.76
2019-02-05T13:19:15.209Z,19.72
2019-02-05T13:21:43.530Z,19.70
2019-02-05T13:24:11.746Z,19.70
2019-02-05T13:26:39.965Z,19.67
2019-02-05T13:29:08.139Z,19.65
2019-02-05T13:31:36.283Z,19.65
2019-02-05T13:34:04.672Z,19.69
2019-02-05T13:36:32.875Z,19.73
2019-02-05T13:39:01.357Z,19.67
2019-02-05T13:41:29.512Z,19.68
2019-02-05T13:43:57.796Z,19.70
2019-02-05T13:46:25.982Z,19.69
2019-02-05T13:48:54.155Z,19.69
2019-02-05T13:51:22.344Z,19.70
2019-02-05T13:53:50.535Z,19.69
2019-02-05T13:56:18.719Z,19.69
2019-02-05T13:58:46.887Z,19.66
2019-02-05T14:01:20.217Z,19.66
2019-02-05T14:03:44.917Z,19.68
2019-02-05T14:06:13.136Z,19.66
2019-02-05T14:08:41.369Z,19.70
2019-02-05T14:11:09.963Z,19.69
2019-02-05T14:13:38.101Z,19.70
2019-02-05T14:16:06.307Z,19.69
2019-02-05T14:18:34.474Z,19.71
2019-02-05T14:21:02.637Z,19.68
2019-02-05T14:23:30.844Z,19.77
2019-02-05T14:25:59.700Z,19.71
2019-02-05T14:28:28.162Z,19.67
2019-02-05T14:30:56.762Z,19.67
2019-02-05T14:33:25.767Z,19.62
2019-02-05T14:35:53.943Z,19.65
2019-02-05T14:38:22.190Z,19.67
2019-02-05T14:40:50.376Z,19.63
2019-02-05T14:43:18.532Z,19.69
2019-02-05T14:45:46.694Z,19.70
2019-02-05T14:48:14.900Z,19.73
2019-02-05T14:50:43.399Z,19.69
2019-02-05T14:53:11.733Z,19.66
2019-02-05T14:55:39.892Z,19.65
2019-02-05T14:58:11.930Z,19.66
2019-02-05T15:00:40.477Z,19.63
2019-02-05T15:03:09.478Z,19.65
2019-02-05T15:05:37.860Z,19.63
2019-02-05T15:08:06.349Z,19.65
2019-02-05T15:10:34.635Z,19.62
2019-02-05T15:13:02.915Z,19.63
2019-02-05T15:15:31.646Z,19.64
2019-02-05T15:17:59.867Z,19.65
2019-02-05T15:20:29.304Z,19.66
2019-02-05T15:22:57.661Z,19.65
2019-02-05T15:25:25.972Z,19.62
2019-02-05T15:27:54.907Z,19.60
2019-02-05T15:30:24.689Z,19.61
2019-02-05T15:33:10.785Z,19.61
2019-02-05T15:35:40.761Z,19.61
2019-02-05T15:38:09.001Z,19.62
2019-02-05T15:40:37.341Z,19.58
2019-02-05T15:43:06.043Z,19.59
2019-02-05T15:45:34.429Z,19.61
2019-02-05T15:48:03.897Z,19.54
2019-02-05T15:50:32.105Z,19.57
2019-02-05T15:53:00.277Z,19.61
2019-02-05T15:55:28.462Z,19.57
2019-02-05T15:57:57.066Z,19.59
2019-02-05T16:00:25.236Z,19.56
2019-02-05T16:02:53.457Z,19.59
2019-02-05T16:05:21.680Z,19.57
2019-02-05T16:07:50.048Z,19.57
2019-02-05T16:10:18.547Z,19.53
2019-02-05T16:12:46.782Z,19.55
2019-02-05T16:15:15.121Z,19.56
2019-02-05T16:17:43.305Z,19.53
2019-02-05T16:20:11.590Z,19.51
2019-02-05T16:22:39.907Z,19.52
2019-02-05T16:25:09.413Z,19.54
2019-02-05T16:27:37.696Z,19.53
2019-02-05T16:30:06.875Z,19.56
2019-02-05T16:32:39.264Z,19.54
2019-02-05T16:35:07.601Z,19.57
2019-02-05T16:37:35.869Z,19.55
2019-02-05T16:40:04.294Z,19.56
2019-02-05T16:42:32.492Z,19.49
2019-02-05T16:45:00.618Z,19.52
2019-02-05T16:47:29.064Z,19.54
2019-02-05T16:49:57.184Z,19.51
2019-02-05T16:52:25.321Z,19.52
2019-02-05T16:54:53.454Z,19.52
2019-02-05T16:57:21.616Z,19.49
2019-02-05T16:59:49.753Z,19.47
2019-02-05T17:02:28.399Z,19.50
2019-02-05T17:04:47.739Z,19.54
2019-02-05T17:07:15.879Z,19.49
2019-02-05T17:09:44.028Z,19.46
2019-02-05T17:12:12.161Z,19.50
2019-02-05T17:14:40.339Z,19.51
2019-02-05T17:17:08.472Z,19.48
2019-02-05T17:19:36.903Z,19.45
2019-02-05T17:22:05.045Z,19.45
2019-02-05T17:24:33.175Z,19.46
2019-02-05T17:27:01.312Z,19.48
2019-02-05T17:29:29.478Z,19.48
2019-02-05T17:31:57.612Z,19.47
2019-02-05T17:34:25.768Z,19.47
2019-02-05T17:36:54.216Z,19.50
2019-02-05T17:39:22.362Z,19.47
2019-02-05T17:41:50.526Z,19.47
2019-02-05T17:44:18.661Z,19.48
2019-02-05T17:46:46.799Z,19.48
2019-02-05T17:49:15.143Z,19.48
2019-02-05T17:51:43.659Z,19.44
2019-02-05T17:54:12.036Z,19.45
2019-02-05T17:56:40.195Z,19.46
2019-02-05T17:59:08.362Z,19.48
2019-02-05T18:01:36.571Z,19.51
2019-02-05T18:04:04.774Z,19.51
2019-02-05T18:06:32.857Z,19.48
2019-02-05T18:09:01.011Z,19.46
2019-02-05T18:11:29.149Z,19.39
2019-02-05T18:13:57.290Z,19.43
2019-02-05T18:16:25.424Z,19.41
2019-02-05T18:18:53.579Z,19.42
2019-02-05T18:21:21.749Z,19.41
2019-02-05T18:23:49.867Z,19.46
2019-02-05T18:26:18.318Z,19.44
2019-02-05T18:28:46.544Z,19.44
2019-02-05T18:31:14.764Z,19.45
2019-02-05T18:33:42.891Z,19.44
2019-02-05T18:36:11.029Z,19.62
2019-02-05T18:38:39.499Z,19.87
2019-02-05T18:41:07.640Z,19.95
2019-02-05T18:43:35.870Z,19.95
2019-02-05T18:46:04.026Z,19.79
2019-02-05T18:48:32.257Z,19.80
2019-02-05T18:51:00.384Z,19.83
2019-02-05T18:53:28.515Z,19.62
2019-02-05T18:55:56.710Z,19.50
2019-02-05T18:58:26.884Z,19.47
2019-02-05T19:00:54.632Z,19.49
2019-02-05T19:03:22.786Z,19.49
2019-02-05T19:05:50.916Z,19.47
2019-02-05T19:08:19.065Z,19.49
2019-02-05T19:10:47.284Z,19.54
2019-02-05T19:13:15.454Z,19.49
2019-02-05T19:15:43.993Z,19.52
2019-02-05T19:18:12.134Z,19.45
2019-02-05T19:20:40.264Z,19.44
2019-02-05T19:23:08.905Z,19.42
2019-02-05T19:26:05.145Z,19.46
2019-02-05T19:28:38.016Z,19.43
2019-02-05T19:31:18.261Z,19.45
2019-02-05T19:33:46.405Z,19.47
2019-02-05T19:36:14.574Z,19.46
2019-02-05T19:38:43.007Z,19.43
2019-02-05T19:41:11.212Z,19.42
2019-02-05T19:43:39.348Z,19.42
2019-02-05T19:46:26.532Z,19.41
2019-02-05T19:49:02.278Z,19.39
2019-02-05T19:51:30.386Z,19.41
2019-02-05T19:53:58.795Z,19.40
2019-02-05T19:56:37.659Z,19.44
2019-02-05T19:58:56.895Z,19.38
2019-02-05T20:01:25.110Z,19.36
2019-02-05T20:03:53.412Z,19.41
2019-02-05T20:06:21.612Z,19.38
2019-02-05T20:08:49.869Z,19.36
2019-02-05T20:11:18.336Z,19.35
2019-02-05T20:13:46.563Z,19.39
2019-02-05T20:16:14.833Z,19.42
2019-02-05T20:18:43.141Z,19.40
2019-02-05T20:21:11.411Z,19.40
2019-02-05T20:23:39.668Z,19.39
2019-02-05T20:26:07.884Z,19.38
2019-02-05T20:28:36.382Z,18.45
2019-02-05T20:31:04.533Z,19.40
2019-02-05T20:33:32.795Z,19.40
2019-02-05T20:36:00.979Z,19.39
2019-02-05T20:38:29.280Z,19.40
2019-02-05T20:40:57.474Z,19.41
2019-02-05T20:43:25.722Z,19.38
2019-02-05T20:45:54.305Z,19.38
2019-02-05T20:48:22.551Z,18.84
2019-02-05T20:50:50.752Z,19.37
2019-02-05T20:53:18.909Z,19.33
2019-02-05T20:55:47.065Z,19.36
2019-02-05T20:58:15.219Z,19.38
2019-02-05T21:00:43.500Z,19.45
2019-02-05T21:03:11.655Z,19.39
2019-02-05T21:05:40.188Z,19.37
2019-02-05T21:08:08.488Z,19.41
2019-02-05T21:10:37.749Z,19.38
2019-02-05T21:13:05.959Z,19.35
2019-02-05T21:15:34.253Z,19.33
2019-02-05T21:18:02.595Z,19.35
2019-02-05T21:20:33.545Z,19.38
2019-02-05T21:23:01.403Z,19.43
2019-02-05T21:25:29.541Z,19.50
2019-02-05T21:27:58.465Z,19.54
2019-02-05T21:30:26.893Z,19.61
2019-02-05T21:32:55.049Z,19.65
2019-02-05T21:35:23.465Z,19.64
2019-02-05T21:37:51.737Z,19.70
2019-02-05T21:40:20.610Z,19.68
2019-02-05T21:42:48.932Z,19.70
2019-02-05T21:45:17.805Z,19.70
2019-02-05T21:47:46.040Z,19.68
2019-02-05T21:50:15.302Z,19.68
2019-02-05T21:52:43.532Z,19.76
2019-02-05T21:55:12.135Z,19.83
2019-02-05T21:57:40.564Z,19.86
2019-02-05T22:00:27.782Z,19.84
2019-02-05T22:02:56.019Z,19.87
2019-02-05T22:05:24.475Z,19.87
2019-02-05T22:07:52.688Z,19.88
2019-02-05T22:10:21.230Z,19.86
2019-02-05T22:12:49.415Z,19.44
2019-02-05T22:15:18.096Z,19.95
2019-02-05T22:17:46.254Z,19.94
2019-02-05T22:20:15.498Z,19.92
2019-02-05T22:22:43.700Z,19.92
2019-02-05T22:25:13.988Z,19.91
2019-02-05T22:27:42.189Z,19.91
2019-02-05T22:30:14.554Z,19.91
2019-02-05T22:32:43.101Z,19.93
2019-02-05T22:35:11.279Z,19.93
2019-02-05T22:37:39.810Z,19.94
2019-02-05T22:40:08.162Z,19.94
2019-02-05T22:42:36.373Z,19.92
2019-02-05T22:45:05.406Z,19.92
2019-02-05T22:47:33.576Z,19.95
2019-02-05T22:50:01.801Z,19.95
2019-02-05T22:52:30.153Z,19.96
2019-02-05T22:54:58.759Z,19.94
2019-02-05T22:57:27.012Z,19.94
2019-02-05T22:59:55.162Z,19.99
2019-02-05T23:02:23.426Z,19.95
2019-02-05T23:05:09.351Z,19.95
2019-02-05T23:07:37.584Z,19.93
2019-02-05T23:10:17.478Z,19.94
2019-02-05T23:12:47.780Z,19.93
2019-02-05T23:15:20.081Z,19.99
2019-02-05T23:17:48.243Z,19.99
2019-02-05T23:20:17.329Z,19.94
2019-02-05T23:22:45.848Z,19.95
2019-02-05T23:25:13.997Z,19.95
2019-02-05T23:27:42.183Z,19.98
2019-02-05T23:30:12.408Z,19.97
2019-02-05T23:32:40.552Z,19.94
2019-02-05T23:35:08.735Z,19.96
2019-02-05T23:37:36.920Z,19.95
2019-02-05T23:40:05.534Z,19.95
2019-02-05T23:42:33.708Z,19.95
2019-02-05T23:45:01.920Z,19.95
2019-02-05T23:47:30.129Z,20.00
2019-02-05T23:49:58.374Z,19.98
2019-02-05T23:52:26.588Z,20.00
2019-02-05T23:54:54.806Z,19.98
2019-02-05T23:57:23.005Z,19.98
2019-02-05T23:59:51.191Z,19.95
